KBYI/BYI METAR and TAF weather

Enter ICAO airport designator
Station Type Date Time Source
KBYI METAR 2020/09/19 23:53 UTC NOAA

KBYI 192353Z AUTO 28010KT 10SM CLR 20/06 A3003 RMK AO2 SLP139 T02000056 10217 20189 53002


Station Type Date Time Source
KBYI Decoded METAR 2020/09/19 23:53 UTC NOAA

BURLEY MUNICIPAL AIRPORT, ID, United States (KBYI) 42-33N 113-46W 1264M
Sep 19, 2020 - 07:53 PM EDT / 2020.09.19 2353 UTC
Wind: from the W (280 degrees) at 12 MPH (10 KT):0
Visibility: 10 mile(s):0
Sky conditions: clear
Temperature: 68.0 F (20.0 C)
Dew Point: 42.1 F (5.6 C)
Relative Humidity: 38%
Pressure (altimeter): 30.03 in. Hg (1016 hPa)
Pressure tendency: 0.01 inches (0.2 hPa) higher than three hours ago
ob: KBYI 192353Z AUTO 28010KT 10SM CLR 20/06 A3003 RMK AO2 SLP139 T02000056 10217 20189 53002
cycle: 0

Station Type Date Time Source
KBYI TAF 2020/09/19 18:22 UTC NOAA

TAF KBYI 191720Z 1918/2018 28010G20KT P6SM SKC
FM192000 29014G24KT P6SM VCTS SCT070 BKN090CB
FM200300 22007KT P6SM SKC

Example: see airport list